sensor_id;sensor_type;location;lat;lon;timestamp;P1;durP1;ratioP1;P2;durP2;ratioP2
54795;SDS011;40693;43.884;20.340;2024-02-16T00:02:17;79.65;;;45.35;;
54795;SDS011;40693;43.884;20.340;2024-02-16T00:04:43;91.15;;;50.13;;
54795;SDS011;40693;43.884;20.340;2024-02-16T00:07:09;89.40;;;49.88;;
54795;SDS011;40693;43.884;20.340;2024-02-16T00:09:35;77.97;;;45.85;;
54795;SDS011;40693;43.884;20.340;2024-02-16T00:12:01;88.82;;;49.63;;
54795;SDS011;40693;43.884;20.340;2024-02-16T00:14:27;113.28;;;61.83;;
54795;SDS011;40693;43.884;20.340;2024-02-16T00:16:53;120.28;;;65.95;;
54795;SDS011;40693;43.884;20.340;2024-02-16T00:19:19;132.63;;;69.28;;
54795;SDS011;40693;43.884;20.340;2024-02-16T00:21:48;178.10;;;96.82;;
54795;SDS011;40693;43.884;20.340;2024-02-16T00:24:16;195.88;;;106.10;;
54795;SDS011;40693;43.884;20.340;2024-02-16T00:26:42;166.93;;;87.68;;
54795;SDS011;40693;43.884;20.340;2024-02-16T00:29:10;170.68;;;89.90;;
54795;SDS011;40693;43.884;20.340;2024-02-16T00:31:36;145.75;;;77.80;;
54795;SDS011;40693;43.884;20.340;2024-02-16T00:34:02;163.60;;;84.90;;
54795;SDS011;40693;43.884;20.340;2024-02-16T00:36:28;168.23;;;99.72;;
54795;SDS011;40693;43.884;20.340;2024-02-16T00:38:55;127.63;;;75.45;;
54795;SDS011;40693;43.884;20.340;2024-02-16T00:41:23;132.70;;;77.28;;
54795;SDS011;40693;43.884;20.340;2024-02-16T00:43:49;128.95;;;71.57;;
54795;SDS011;40693;43.884;20.340;2024-02-16T00:46:16;125.25;;;67.15;;
54795;SDS011;40693;43.884;20.340;2024-02-16T00:48:42;116.20;;;67.03;;
54795;SDS011;40693;43.884;20.340;2024-02-16T00:51:08;126.17;;;65.07;;
54795;SDS011;40693;43.884;20.340;2024-02-16T00:53:34;128.35;;;71.07;;
54795;SDS011;40693;43.884;20.340;2024-02-16T00:56:00;127.38;;;70.78;;
54795;SDS011;40693;43.884;20.340;2024-02-16T00:58:25;113.03;;;64.55;;
54795;SDS011;40693;43.884;20.340;2024-02-16T01:00:51;107.67;;;59.90;;
54795;SDS011;40693;43.884;20.340;2024-02-16T01:03:18;134.83;;;71.50;;
54795;SDS011;40693;43.884;20.340;2024-02-16T01:05:43;179.47;;;97.97;;
54795;SDS011;40693;43.884;20.340;2024-02-16T01:08:09;129.77;;;71.33;;
54795;SDS011;40693;43.884;20.340;2024-02-16T01:10:35;102.97;;;59.30;;
54795;SDS011;40693;43.884;20.340;2024-02-16T01:13:01;103.43;;;56.30;;
54795;SDS011;40693;43.884;20.340;2024-02-16T01:15:28;99.00;;;55.67;;
54795;SDS011;40693;43.884;20.340;2024-02-16T01:17:54;101.03;;;55.63;;
54795;SDS011;40693;43.884;20.340;2024-02-16T01:20:20;87.47;;;45.17;;
54795;SDS011;40693;43.884;20.340;2024-02-16T01:22:45;82.87;;;43.40;;
54795;SDS011;40693;43.884;20.340;2024-02-16T01:25:11;72.77;;;38.60;;
54795;SDS011;40693;43.884;20.340;2024-02-16T01:27:37;50.33;;;28.53;;
54795;SDS011;40693;43.884;20.340;2024-02-16T01:30:03;51.77;;;29.37;;
54795;SDS011;40693;43.884;20.340;2024-02-16T01:32:29;70.90;;;42.53;;
54795;SDS011;40693;43.884;20.340;2024-02-16T01:34:55;83.00;;;47.23;;
54795;SDS011;40693;43.884;20.340;2024-02-16T01:37:20;78.37;;;44.80;;
54795;SDS011;40693;43.884;20.340;2024-02-16T01:39:46;99.77;;;54.37;;
54795;SDS011;40693;43.884;20.340;2024-02-16T01:42:12;99.77;;;55.87;;
54795;SDS011;40693;43.884;20.340;2024-02-16T01:44:38;100.43;;;53.63;;
54795;SDS011;40693;43.884;20.340;2024-02-16T01:47:03;108.33;;;60.67;;
54795;SDS011;40693;43.884;20.340;2024-02-16T01:49:30;93.40;;;53.60;;
54795;SDS011;40693;43.884;20.340;2024-02-16T01:51:56;108.57;;;61.20;;
54795;SDS011;40693;43.884;20.340;2024-02-16T01:54:22;97.43;;;54.80;;
54795;SDS011;40693;43.884;20.340;2024-02-16T01:56:48;103.97;;;55.97;;
54795;SDS011;40693;43.884;20.340;2024-02-16T01:59:16;100.30;;;56.80;;
54795;SDS011;40693;43.884;20.340;2024-02-16T02:01:42;102.13;;;55.40;;
54795;SDS011;40693;43.884;20.340;2024-02-16T02:04:08;81.50;;;44.90;;
54795;SDS011;40693;43.884;20.340;2024-02-16T02:06:34;74.70;;;44.57;;
54795;SDS011;40693;43.884;20.340;2024-02-16T02:09:00;63.57;;;38.10;;
54795;SDS011;40693;43.884;20.340;2024-02-16T02:11:26;75.57;;;42.90;;
54795;SDS011;40693;43.884;20.340;2024-02-16T02:13:52;61.27;;;34.90;;
54795;SDS011;40693;43.884;20.340;2024-02-16T02:16:18;55.90;;;34.83;;
54795;SDS011;40693;43.884;20.340;2024-02-16T02:18:46;55.40;;;32.97;;
54795;SDS011;40693;43.884;20.340;2024-02-16T02:21:11;60.33;;;34.90;;
54795;SDS011;40693;43.884;20.340;2024-02-16T02:23:39;61.47;;;34.20;;
54795;SDS011;40693;43.884;20.340;2024-02-16T02:26:05;52.13;;;33.70;;
54795;SDS011;40693;43.884;20.340;2024-02-16T02:28:32;51.40;;;32.23;;
54795;SDS011;40693;43.884;20.340;2024-02-16T02:30:59;58.30;;;34.73;;
54795;SDS011;40693;43.884;20.340;2024-02-16T02:33:25;59.50;;;36.17;;
54795;SDS011;40693;43.884;20.340;2024-02-16T02:35:50;62.83;;;35.07;;
54795;SDS011;40693;43.884;20.340;2024-02-16T02:38:16;63.30;;;33.77;;
54795;SDS011;40693;43.884;20.340;2024-02-16T02:40:42;54.43;;;30.47;;
54795;SDS011;40693;43.884;20.340;2024-02-16T02:43:08;47.23;;;28.07;;
54795;SDS011;40693;43.884;20.340;2024-02-16T02:45:34;57.33;;;29.77;;
54795;SDS011;40693;43.884;20.340;2024-02-16T02:48:00;55.17;;;28.97;;
54795;SDS011;40693;43.884;20.340;2024-02-16T02:50:25;73.80;;;34.57;;
54795;SDS011;40693;43.884;20.340;2024-02-16T02:52:52;64.93;;;30.37;;
54795;SDS011;40693;43.884;20.340;2024-02-16T02:55:17;41.10;;;22.20;;
54795;SDS011;40693;43.884;20.340;2024-02-16T02:57:43;41.33;;;21.50;;
54795;SDS011;40693;43.884;20.340;2024-02-16T03:00:09;46.63;;;21.33;;
54795;SDS011;40693;43.884;20.340;2024-02-16T03:02:38;43.77;;;21.93;;
54795;SDS011;40693;43.884;20.340;2024-02-16T03:05:04;35.13;;;19.33;;
54795;SDS011;40693;43.884;20.340;2024-02-16T03:07:32;29.70;;;18.77;;
54795;SDS011;40693;43.884;20.340;2024-02-16T03:09:58;38.47;;;20.43;;
54795;SDS011;40693;43.884;20.340;2024-02-16T03:12:24;29.77;;;17.67;;
54795;SDS011;40693;43.884;20.340;2024-02-16T03:14:50;37.47;;;19.80;;
54795;SDS011;40693;43.884;20.340;2024-02-16T03:17:16;30.77;;;19.33;;
54795;SDS011;40693;43.884;20.340;2024-02-16T03:19:42;31.97;;;19.07;;
54795;SDS011;40693;43.884;20.340;2024-02-16T03:22:07;29.03;;;18.87;;
54795;SDS011;40693;43.884;20.340;2024-02-16T03:24:33;30.20;;;18.30;;
54795;SDS011;40693;43.884;20.340;2024-02-16T03:26:59;31.43;;;19.60;;
54795;SDS011;40693;43.884;20.340;2024-02-16T03:29:25;47.97;;;25.47;;
54795;SDS011;40693;43.884;20.340;2024-02-16T03:31:51;33.90;;;18.93;;
54795;SDS011;40693;43.884;20.340;2024-02-16T03:34:17;36.37;;;17.83;;
54795;SDS011;40693;43.884;20.340;2024-02-16T03:36:43;31.90;;;18.40;;
54795;SDS011;40693;43.884;20.340;2024-02-16T03:39:09;24.83;;;16.47;;
54795;SDS011;40693;43.884;20.340;2024-02-16T03:41:35;32.33;;;18.90;;
54795;SDS011;40693;43.884;20.340;2024-02-16T03:44:00;29.87;;;18.30;;
54795;SDS011;40693;43.884;20.340;2024-02-16T03:46:26;36.60;;;20.83;;
54795;SDS011;40693;43.884;20.340;2024-02-16T03:48:52;44.43;;;21.93;;
54795;SDS011;40693;43.884;20.340;2024-02-16T03:51:18;38.73;;;22.33;;
54795;SDS011;40693;43.884;20.340;2024-02-16T03:53:44;38.33;;;21.73;;
54795;SDS011;40693;43.884;20.340;2024-02-16T03:56:18;36.00;;;21.40;;
54795;SDS011;40693;43.884;20.340;2024-02-16T03:58:44;41.53;;;22.20;;
54795;SDS011;40693;43.884;20.340;2024-02-16T04:01:10;35.53;;;21.13;;
54795;SDS011;40693;43.884;20.340;2024-02-16T04:03:36;42.77;;;23.87;;
54795;SDS011;40693;43.884;20.340;2024-02-16T04:06:01;50.83;;;27.47;;
54795;SDS011;40693;43.884;20.340;2024-02-16T04:08:29;44.23;;;26.97;;
54795;SDS011;40693;43.884;20.340;2024-02-16T04:10:55;52.03;;;33.10;;
54795;SDS011;40693;43.884;20.340;2024-02-16T04:13:21;47.53;;;28.20;;
54795;SDS011;40693;43.884;20.340;2024-02-16T04:15:46;51.67;;;33.17;;
54795;SDS011;40693;43.884;20.340;2024-02-16T04:18:12;44.97;;;27.60;;
54795;SDS011;40693;43.884;20.340;2024-02-16T04:20:38;49.10;;;26.83;;
54795;SDS011;40693;43.884;20.340;2024-02-16T04:23:06;44.27;;;25.23;;
54795;SDS011;40693;43.884;20.340;2024-02-16T04:25:31;51.10;;;25.97;;
54795;SDS011;40693;43.884;20.340;2024-02-16T04:27:57;44.00;;;26.33;;
54795;SDS011;40693;43.884;20.340;2024-02-16T04:30:23;46.37;;;27.30;;
54795;SDS011;40693;43.884;20.340;2024-02-16T04:32:49;42.47;;;24.67;;
54795;SDS011;40693;43.884;20.340;2024-02-16T04:35:14;45.73;;;27.13;;
54795;SDS011;40693;43.884;20.340;2024-02-16T04:37:40;51.43;;;27.17;;
54795;SDS011;40693;43.884;20.340;2024-02-16T04:40:06;43.47;;;27.90;;
54795;SDS011;40693;43.884;20.340;2024-02-16T04:42:33;62.67;;;34.43;;
54795;SDS011;40693;43.884;20.340;2024-02-16T04:44:59;69.17;;;36.67;;
54795;SDS011;40693;43.884;20.340;2024-02-16T04:47:25;70.03;;;38.70;;
54795;SDS011;40693;43.884;20.340;2024-02-16T04:49:51;57.70;;;32.40;;
54795;SDS011;40693;43.884;20.340;2024-02-16T04:52:17;118.60;;;63.43;;
54795;SDS011;40693;43.884;20.340;2024-02-16T04:54:43;68.83;;;38.53;;
54795;SDS011;40693;43.884;20.340;2024-02-16T04:57:08;60.67;;;33.63;;
54795;SDS011;40693;43.884;20.340;2024-02-16T04:59:34;56.03;;;31.20;;
54795;SDS011;40693;43.884;20.340;2024-02-16T05:02:00;58.40;;;33.33;;
54795;SDS011;40693;43.884;20.340;2024-02-16T05:04:26;57.23;;;30.47;;
54795;SDS011;40693;43.884;20.340;2024-02-16T05:06:52;45.87;;;27.43;;
54795;SDS011;40693;43.884;20.340;2024-02-16T05:09:22;48.80;;;27.80;;
54795;SDS011;40693;43.884;20.340;2024-02-16T05:11:49;59.13;;;32.80;;
54795;SDS011;40693;43.884;20.340;2024-02-16T05:14:16;46.27;;;29.30;;
54795;SDS011;40693;43.884;20.340;2024-02-16T05:16:46;54.23;;;32.83;;
54795;SDS011;40693;43.884;20.340;2024-02-16T05:19:12;100.23;;;60.33;;
54795;SDS011;40693;43.884;20.340;2024-02-16T05:21:38;141.63;;;85.83;;
54795;SDS011;40693;43.884;20.340;2024-02-16T05:24:04;126.57;;;80.50;;
54795;SDS011;40693;43.884;20.340;2024-02-16T05:26:30;113.17;;;72.17;;
54795;SDS011;40693;43.884;20.340;2024-02-16T05:28:56;100.27;;;59.37;;
54795;SDS011;40693;43.884;20.340;2024-02-16T05:31:22;74.10;;;45.87;;
54795;SDS011;40693;43.884;20.340;2024-02-16T05:33:49;61.90;;;39.10;;
54795;SDS011;40693;43.884;20.340;2024-02-16T05:36:19;67.20;;;38.27;;
54795;SDS011;40693;43.884;20.340;2024-02-16T05:38:48;64.37;;;38.67;;
54795;SDS011;40693;43.884;20.340;2024-02-16T05:41:15;59.40;;;33.63;;
54795;SDS011;40693;43.884;20.340;2024-02-16T05:43:43;74.50;;;41.37;;
54795;SDS011;40693;43.884;20.340;2024-02-16T05:46:15;75.20;;;41.37;;
54795;SDS011;40693;43.884;20.340;2024-02-16T05:48:42;65.57;;;35.72;;
54795;SDS011;40693;43.884;20.340;2024-02-16T05:51:09;71.47;;;37.90;;
54795;SDS011;40693;43.884;20.340;2024-02-16T05:53:37;72.20;;;38.03;;
54795;SDS011;40693;43.884;20.340;2024-02-16T05:56:04;87.80;;;47.23;;
54795;SDS011;40693;43.884;20.340;2024-02-16T05:58:30;92.83;;;53.27;;
54795;SDS011;40693;43.884;20.340;2024-02-16T06:00:56;81.47;;;46.53;;
54795;SDS011;40693;43.884;20.340;2024-02-16T06:03:22;75.53;;;44.63;;
54795;SDS011;40693;43.884;20.340;2024-02-16T06:05:48;76.40;;;42.13;;
54795;SDS011;40693;43.884;20.340;2024-02-16T06:08:14;69.93;;;37.57;;
54795;SDS011;40693;43.884;20.340;2024-02-16T06:10:43;64.33;;;38.13;;
54795;SDS011;40693;43.884;20.340;2024-02-16T06:13:15;64.53;;;37.23;;
54795;SDS011;40693;43.884;20.340;2024-02-16T06:15:42;67.77;;;38.47;;
54795;SDS011;40693;43.884;20.340;2024-02-16T06:18:08;63.63;;;38.60;;
54795;SDS011;40693;43.884;20.340;2024-02-16T06:20:34;62.87;;;35.83;;
54795;SDS011;40693;43.884;20.340;2024-02-16T06:23:00;51.13;;;31.60;;
54795;SDS011;40693;43.884;20.340;2024-02-16T06:25:27;46.80;;;27.50;;
54795;SDS011;40693;43.884;20.340;2024-02-16T06:27:52;43.27;;;28.57;;
54795;SDS011;40693;43.884;20.340;2024-02-16T06:30:18;46.90;;;28.97;;
54795;SDS011;40693;43.884;20.340;2024-02-16T06:32:44;49.10;;;28.67;;
54795;SDS011;40693;43.884;20.340;2024-02-16T06:35:10;48.20;;;28.40;;
54795;SDS011;40693;43.884;20.340;2024-02-16T06:37:36;65.00;;;42.23;;
54795;SDS011;40693;43.884;20.340;2024-02-16T06:40:05;89.17;;;49.13;;
54795;SDS011;40693;43.884;20.340;2024-02-16T06:42:35;79.67;;;47.20;;
54795;SDS011;40693;43.884;20.340;2024-02-16T06:45:01;70.03;;;43.70;;
54795;SDS011;40693;43.884;20.340;2024-02-16T06:47:28;71.20;;;39.17;;
54795;SDS011;40693;43.884;20.340;2024-02-16T06:49:54;73.33;;;41.63;;
54795;SDS011;40693;43.884;20.340;2024-02-16T06:52:20;58.53;;;31.87;;
54795;SDS011;40693;43.884;20.340;2024-02-16T06:54:46;37.33;;;21.33;;
54795;SDS011;40693;43.884;20.340;2024-02-16T06:57:11;29.53;;;18.53;;
54795;SDS011;40693;43.884;20.340;2024-02-16T06:59:37;32.80;;;20.63;;
54795;SDS011;40693;43.884;20.340;2024-02-16T07:02:03;29.47;;;20.63;;
54795;SDS011;40693;43.884;20.340;2024-02-16T07:04:29;28.27;;;19.57;;
54795;SDS011;40693;43.884;20.340;2024-02-16T07:06:54;30.77;;;20.40;;
54795;SDS011;40693;43.884;20.340;2024-02-16T07:09:20;37.73;;;23.37;;
54795;SDS011;40693;43.884;20.340;2024-02-16T07:11:48;44.27;;;27.97;;
54795;SDS011;40693;43.884;20.340;2024-02-16T07:14:15;45.97;;;29.53;;
54795;SDS011;40693;43.884;20.340;2024-02-16T07:16:41;53.67;;;29.10;;
54795;SDS011;40693;43.884;20.340;2024-02-16T07:19:07;151.17;;;80.63;;
54795;SDS011;40693;43.884;20.340;2024-02-16T07:21:33;74.77;;;43.50;;
54795;SDS011;40693;43.884;20.340;2024-02-16T07:24:03;52.87;;;36.27;;
54795;SDS011;40693;43.884;20.340;2024-02-16T07:26:29;44.60;;;29.20;;
54795;SDS011;40693;43.884;20.340;2024-02-16T07:28:54;35.07;;;23.77;;
54795;SDS011;40693;43.884;20.340;2024-02-16T07:31:20;35.87;;;22.77;;
54795;SDS011;40693;43.884;20.340;2024-02-16T07:33:46;38.73;;;24.00;;
54795;SDS011;40693;43.884;20.340;2024-02-16T07:36:12;57.73;;;38.60;;
54795;SDS011;40693;43.884;20.340;2024-02-16T07:38:39;58.87;;;38.10;;
54795;SDS011;40693;43.884;20.340;2024-02-16T07:41:04;42.57;;;26.77;;
54795;SDS011;40693;43.884;20.340;2024-02-16T07:43:31;38.73;;;24.80;;
54795;SDS011;40693;43.884;20.340;2024-02-16T07:45:56;59.33;;;35.73;;
54795;SDS011;40693;43.884;20.340;2024-02-16T07:48:22;45.87;;;28.77;;
54795;SDS011;40693;43.884;20.340;2024-02-16T07:50:48;35.63;;;25.93;;
54795;SDS011;40693;43.884;20.340;2024-02-16T07:53:17;40.17;;;26.03;;
54795;SDS011;40693;43.884;20.340;2024-02-16T07:55:43;62.67;;;38.47;;
54795;SDS011;40693;43.884;20.340;2024-02-16T07:58:09;62.93;;;41.60;;
54795;SDS011;40693;43.884;20.340;2024-02-16T08:00:35;69.78;;;41.78;;
54795;SDS011;40693;43.884;20.340;2024-02-16T08:03:01;66.72;;;41.50;;
54795;SDS011;40693;43.884;20.340;2024-02-16T08:05:27;65.90;;;44.47;;
54795;SDS011;40693;43.884;20.340;2024-02-16T08:07:53;67.88;;;41.33;;
54795;SDS011;40693;43.884;20.340;2024-02-16T08:10:20;74.10;;;43.72;;
54795;SDS011;40693;43.884;20.340;2024-02-16T08:12:46;55.08;;;38.22;;
54795;SDS011;40693;43.884;20.340;2024-02-16T08:15:13;61.35;;;39.45;;
54795;SDS011;40693;43.884;20.340;2024-02-16T08:17:39;67.28;;;37.45;;
54795;SDS011;40693;43.884;20.340;2024-02-16T08:20:05;64.72;;;40.35;;
54795;SDS011;40693;43.884;20.340;2024-02-16T08:22:31;58.92;;;39.63;;
54795;SDS011;40693;43.884;20.340;2024-02-16T08:24:58;48.03;;;30.10;;
54795;SDS011;40693;43.884;20.340;2024-02-16T08:27:24;52.10;;;32.33;;
54795;SDS011;40693;43.884;20.340;2024-02-16T08:29:50;48.42;;;32.15;;
54795;SDS011;40693;43.884;20.340;2024-02-16T08:32:18;37.00;;;26.02;;
54795;SDS011;40693;43.884;20.340;2024-02-16T08:34:45;42.83;;;28.52;;
54795;SDS011;40693;43.884;20.340;2024-02-16T08:37:13;47.38;;;31.00;;
54795;SDS011;40693;43.884;20.340;2024-02-16T08:39:39;35.20;;;25.25;;
54795;SDS011;40693;43.884;20.340;2024-02-16T08:42:06;39.80;;;24.88;;
54795;SDS011;40693;43.884;20.340;2024-02-16T08:44:34;36.60;;;24.45;;
54795;SDS011;40693;43.884;20.340;2024-02-16T08:47:00;37.35;;;25.65;;
54795;SDS011;40693;43.884;20.340;2024-02-16T08:49:26;42.40;;;27.65;;
54795;SDS011;40693;43.884;20.340;2024-02-16T08:51:52;33.70;;;21.90;;
54795;SDS011;40693;43.884;20.340;2024-02-16T08:54:17;34.70;;;20.42;;
54795;SDS011;40693;43.884;20.340;2024-02-16T08:56:45;36.70;;;26.10;;
54795;SDS011;40693;43.884;20.340;2024-02-16T08:59:11;34.92;;;21.58;;
54795;SDS011;40693;43.884;20.340;2024-02-16T09:01:37;30.50;;;21.65;;
54795;SDS011;40693;43.884;20.340;2024-02-16T09:04:04;45.25;;;30.02;;
54795;SDS011;40693;43.884;20.340;2024-02-16T09:06:30;33.47;;;22.17;;
54795;SDS011;40693;43.884;20.340;2024-02-16T09:08:56;33.78;;;22.23;;
54795;SDS011;40693;43.884;20.340;2024-02-16T09:11:22;38.97;;;26.27;;
54795;SDS011;40693;43.884;20.340;2024-02-16T09:13:49;29.25;;;17.58;;
54795;SDS011;40693;43.884;20.340;2024-02-16T09:16:15;29.20;;;20.98;;
54795;SDS011;40693;43.884;20.340;2024-02-16T09:18:41;35.28;;;20.67;;
54795;SDS011;40693;43.884;20.340;2024-02-16T09:21:07;33.05;;;18.85;;
54795;SDS011;40693;43.884;20.340;2024-02-16T09:23:33;31.00;;;21.83;;
54795;SDS011;40693;43.884;20.340;2024-02-16T09:26:00;28.73;;;21.20;;
54795;SDS011;40693;43.884;20.340;2024-02-16T09:28:27;32.15;;;21.38;;
54795;SDS011;40693;43.884;20.340;2024-02-16T09:30:54;26.65;;;17.45;;
54795;SDS011;40693;43.884;20.340;2024-02-16T09:33:20;30.42;;;19.65;;
54795;SDS011;40693;43.884;20.340;2024-02-16T09:35:47;50.90;;;31.75;;
54795;SDS011;40693;43.884;20.340;2024-02-16T09:38:13;34.55;;;22.20;;
54795;SDS011;40693;43.884;20.340;2024-02-16T09:40:39;30.77;;;21.27;;
54795;SDS011;40693;43.884;20.340;2024-02-16T09:43:05;55.85;;;35.03;;
54795;SDS011;40693;43.884;20.340;2024-02-16T09:45:32;32.67;;;21.33;;
54795;SDS011;40693;43.884;20.340;2024-02-16T09:47:58;30.38;;;19.75;;
54795;SDS011;40693;43.884;20.340;2024-02-16T09:50:25;30.88;;;21.52;;
54795;SDS011;40693;43.884;20.340;2024-02-16T09:52:54;35.88;;;23.90;;
54795;SDS011;40693;43.884;20.340;2024-02-16T09:55:23;35.28;;;22.90;;
54795;SDS011;40693;43.884;20.340;2024-02-16T09:57:59;37.25;;;19.83;;
54795;SDS011;40693;43.884;20.340;2024-02-16T10:00:30;26.33;;;17.23;;
54795;SDS011;40693;43.884;20.340;2024-02-16T10:02:55;25.38;;;17.38;;
54795;SDS011;40693;43.884;20.340;2024-02-16T10:05:21;21.65;;;15.95;;
54795;SDS011;40693;43.884;20.340;2024-02-16T10:07:48;24.00;;;16.23;;
54795;SDS011;40693;43.884;20.340;2024-02-16T10:10:24;24.00;;;14.52;;
54795;SDS011;40693;43.884;20.340;2024-02-16T10:13:03;24.15;;;16.55;;
54795;SDS011;40693;43.884;20.340;2024-02-16T10:15:31;18.00;;;13.98;;
54795;SDS011;40693;43.884;20.340;2024-02-16T10:18:01;23.45;;;15.68;;
54795;SDS011;40693;43.884;20.340;2024-02-16T10:20:28;18.17;;;12.93;;
54795;SDS011;40693;43.884;20.340;2024-02-16T10:23:04;19.60;;;14.63;;
54795;SDS011;40693;43.884;20.340;2024-02-16T10:25:39;23.95;;;17.15;;
54795;SDS011;40693;43.884;20.340;2024-02-16T10:28:09;30.70;;;21.65;;
54795;SDS011;40693;43.884;20.340;2024-02-16T10:30:38;52.30;;;43.58;;
54795;SDS011;40693;43.884;20.340;2024-02-16T10:33:06;21.70;;;13.95;;
54795;SDS011;40693;43.884;20.340;2024-02-16T10:35:36;16.00;;;12.95;;
54795;SDS011;40693;43.884;20.340;2024-02-16T10:38:02;20.08;;;14.68;;
54795;SDS011;40693;43.884;20.340;2024-02-16T10:40:33;19.45;;;13.95;;
54795;SDS011;40693;43.884;20.340;2024-02-16T10:43:03;16.43;;;11.10;;
54795;SDS011;40693;43.884;20.340;2024-02-16T10:45:33;34.97;;;25.65;;
54795;SDS011;40693;43.884;20.340;2024-02-16T10:48:01;38.80;;;24.48;;
54795;SDS011;40693;43.884;20.340;2024-02-16T10:50:28;29.90;;;20.17;;
54795;SDS011;40693;43.884;20.340;2024-02-16T10:52:54;25.75;;;17.65;;
54795;SDS011;40693;43.884;20.340;2024-02-16T10:55:22;29.55;;;21.15;;
54795;SDS011;40693;43.884;20.340;2024-02-16T10:57:49;25.45;;;17.40;;
54795;SDS011;40693;43.884;20.340;2024-02-16T11:00:15;27.77;;;21.08;;
54795;SDS011;40693;43.884;20.340;2024-02-16T11:02:58;48.45;;;36.28;;
54795;SDS011;40693;43.884;20.340;2024-02-16T11:05:39;31.90;;;25.40;;
54795;SDS011;40693;43.884;20.340;2024-02-16T11:08:13;27.88;;;18.83;;
54795;SDS011;40693;43.884;20.340;2024-02-16T11:11:02;14.15;;;11.23;;
54795;SDS011;40693;43.884;20.340;2024-02-16T11:13:32;17.63;;;11.65;;
54795;SDS011;40693;43.884;20.340;2024-02-16T11:15:59;17.30;;;11.57;;
54795;SDS011;40693;43.884;20.340;2024-02-16T11:18:32;15.05;;;10.98;;
54795;SDS011;40693;43.884;20.340;2024-02-16T11:21:03;20.30;;;13.98;;
54795;SDS011;40693;43.884;20.340;2024-02-16T11:23:29;17.92;;;11.70;;
54795;SDS011;40693;43.884;20.340;2024-02-16T11:26:02;24.33;;;16.05;;
54795;SDS011;40693;43.884;20.340;2024-02-16T11:28:32;23.05;;;13.32;;
54795;SDS011;40693;43.884;20.340;2024-02-16T11:31:01;19.38;;;14.02;;
54795;SDS011;40693;43.884;20.340;2024-02-16T11:33:28;15.82;;;12.85;;
54795;SDS011;40693;43.884;20.340;2024-02-16T11:35:55;25.60;;;20.10;;
54795;SDS011;40693;43.884;20.340;2024-02-16T11:38:22;19.60;;;13.32;;
54795;SDS011;40693;43.884;20.340;2024-02-16T11:41:05;18.77;;;12.48;;
54795;SDS011;40693;43.884;20.340;2024-02-16T11:43:33;17.08;;;12.05;;
54795;SDS011;40693;43.884;20.340;2024-02-16T11:45:58;17.65;;;14.00;;
54795;SDS011;40693;43.884;20.340;2024-02-16T11:48:26;12.88;;;10.48;;
54795;SDS011;40693;43.884;20.340;2024-02-16T11:51:00;14.70;;;10.13;;
54795;SDS011;40693;43.884;20.340;2024-02-16T11:53:28;18.10;;;12.27;;
54795;SDS011;40693;43.884;20.340;2024-02-16T11:55:54;18.10;;;11.77;;
54795;SDS011;40693;43.884;20.340;2024-02-16T11:58:20;23.10;;;16.67;;
54795;SDS011;40693;43.884;20.340;2024-02-16T12:00:47;35.67;;;20.92;;
54795;SDS011;40693;43.884;20.340;2024-02-16T12:03:23;28.20;;;17.80;;
54795;SDS011;40693;43.884;20.340;2024-02-16T12:05:56;20.33;;;16.17;;
54795;SDS011;40693;43.884;20.340;2024-02-16T12:08:23;29.10;;;17.83;;
54795;SDS011;40693;43.884;20.340;2024-02-16T12:10:50;16.00;;;11.52;;
54795;SDS011;40693;43.884;20.340;2024-02-16T12:13:26;22.83;;;12.75;;
54795;SDS011;40693;43.884;20.340;2024-02-16T12:15:52;22.23;;;15.20;;
54795;SDS011;40693;43.884;20.340;2024-02-16T12:18:21;25.38;;;14.80;;
54795;SDS011;40693;43.884;20.340;2024-02-16T12:20:58;28.30;;;17.33;;
54795;SDS011;40693;43.884;20.340;2024-02-16T12:23:24;27.83;;;18.02;;
54795;SDS011;40693;43.884;20.340;2024-02-16T12:25:50;35.30;;;21.38;;
54795;SDS011;40693;43.884;20.340;2024-02-16T12:28:26;29.65;;;18.73;;
54795;SDS011;40693;43.884;20.340;2024-02-16T12:30:56;37.88;;;23.23;;
54795;SDS011;40693;43.884;20.340;2024-02-16T12:33:23;14.77;;;10.13;;
54795;SDS011;40693;43.884;20.340;2024-02-16T12:38:48;22.13;;;14.05;;
54795;SDS011;40693;43.884;20.340;2024-02-16T12:41:14;15.20;;;11.45;;
54795;SDS011;40693;43.884;20.340;2024-02-16T12:43:41;17.55;;;13.55;;
54795;SDS011;40693;43.884;20.340;2024-02-16T12:46:06;15.20;;;11.43;;
54795;SDS011;40693;43.884;20.340;2024-02-16T12:48:32;22.92;;;15.20;;
54795;SDS011;40693;43.884;20.340;2024-02-16T12:50:58;18.65;;;14.40;;
54795;SDS011;40693;43.884;20.340;2024-02-16T12:53:24;21.48;;;12.70;;
54795;SDS011;40693;43.884;20.340;2024-02-16T12:55:51;19.63;;;13.25;;
54795;SDS011;40693;43.884;20.340;2024-02-16T12:58:16;19.88;;;13.85;;
54795;SDS011;40693;43.884;20.340;2024-02-16T13:00:42;16.75;;;12.73;;
54795;SDS011;40693;43.884;20.340;2024-02-16T13:03:08;22.67;;;14.38;;
54795;SDS011;40693;43.884;20.340;2024-02-16T13:05:35;22.70;;;14.55;;
54795;SDS011;40693;43.884;20.340;2024-02-16T13:08:01;30.42;;;19.15;;
54795;SDS011;40693;43.884;20.340;2024-02-16T13:10:27;24.45;;;14.40;;
54795;SDS011;40693;43.884;20.340;2024-02-16T13:12:53;59.67;;;32.80;;
54795;SDS011;40693;43.884;20.340;2024-02-16T13:15:19;20.02;;;12.48;;
54795;SDS011;40693;43.884;20.340;2024-02-16T13:17:45;34.25;;;20.05;;
54795;SDS011;40693;43.884;20.340;2024-02-16T13:20:12;50.83;;;27.52;;
54795;SDS011;40693;43.884;20.340;2024-02-16T13:22:40;22.67;;;15.90;;
54795;SDS011;40693;43.884;20.340;2024-02-16T13:25:07;20.02;;;12.18;;
54795;SDS011;40693;43.884;20.340;2024-02-16T13:27:34;35.88;;;19.23;;
54795;SDS011;40693;43.884;20.340;2024-02-16T13:30:00;20.02;;;12.52;;
54795;SDS011;40693;43.884;20.340;2024-02-16T13:32:26;25.50;;;16.10;;
54795;SDS011;40693;43.884;20.340;2024-02-16T13:34:53;26.38;;;16.38;;
54795;SDS011;40693;43.884;20.340;2024-02-16T13:37:19;22.13;;;13.23;;
54795;SDS011;40693;43.884;20.340;2024-02-16T13:39:45;13.90;;;9.95;;
54795;SDS011;40693;43.884;20.340;2024-02-16T13:42:12;29.67;;;17.20;;
54795;SDS011;40693;43.884;20.340;2024-02-16T13:44:38;17.45;;;11.10;;
54795;SDS011;40693;43.884;20.340;2024-02-16T13:47:04;14.15;;;9.27;;
54795;SDS011;40693;43.884;20.340;2024-02-16T13:49:30;19.08;;;10.02;;
54795;SDS011;40693;43.884;20.340;2024-02-16T13:51:56;28.80;;;18.23;;
54795;SDS011;40693;43.884;20.340;2024-02-16T13:54:24;13.90;;;8.57;;
54795;SDS011;40693;43.884;20.340;2024-02-16T13:56:50;15.20;;;10.30;;
54795;SDS011;40693;43.884;20.340;2024-02-16T13:59:16;23.73;;;13.25;;
54795;SDS011;40693;43.884;20.340;2024-02-16T14:01:42;27.60;;;15.68;;
54795;SDS011;40693;43.884;20.340;2024-02-16T14:04:08;17.23;;;10.52;;
54795;SDS011;40693;43.884;20.340;2024-02-16T14:06:34;13.90;;;9.13;;
54795;SDS011;40693;43.884;20.340;2024-02-16T14:09:01;36.85;;;24.60;;
54795;SDS011;40693;43.884;20.340;2024-02-16T14:11:34;13.73;;;6.75;;